createdAt,value
2022-09-01T00:00:49.365Z,99537.72
2022-09-01T00:03:19.828Z,99536.41
2022-09-01T00:05:46.390Z,99541.66
2022-09-01T00:08:13.456Z,99538.94
2022-09-01T00:10:45.276Z,99529.66
2022-09-01T00:13:12.668Z,99538.94
2022-09-01T00:15:39.692Z,99536.06
2022-09-01T00:18:06.616Z,99523.44
2022-09-01T00:20:33.294Z,99532.72
2022-09-01T00:23:00.901Z,99527.69
2022-09-01T00:25:28.585Z,99527.56
2022-09-01T00:27:59.360Z,99527.69
2022-09-01T00:30:26.283Z,99526.25
2022-09-01T00:32:53.070Z,99520.41
2022-09-01T00:35:19.623Z,99530.03
2022-09-01T00:37:46.181Z,99527.91
2022-09-01T00:40:13.877Z,99529.56
2022-09-01T00:42:41.138Z,99537.19
2022-09-01T00:45:08.924Z,99537.19
2022-09-01T00:47:37.132Z,99545.97
2022-09-01T00:50:09.994Z,99532.94
2022-09-01T00:52:40.559Z,99536.25
2022-09-01T00:55:13.128Z,99541.72
2022-09-01T00:57:40.376Z,99535.19
2022-09-01T01:00:11.416Z,99537.94
2022-09-01T01:02:39.119Z,99534.09
2022-09-01T01:05:07.184Z,99539.59
2022-09-01T01:07:42.443Z,99539.59
2022-09-01T01:10:14.860Z,99537.94
2022-09-01T01:12:43.230Z,99539.00
2022-09-01T01:15:11.576Z,99546.16
2022-09-01T01:17:38.168Z,99553.88
2022-09-01T01:23:16.912Z,99545.44
2022-09-01T01:25:52.226Z,99546.28
2022-09-01T01:28:26.915Z,99546.28
2022-09-01T01:31:01.664Z,99550.53
2022-09-01T01:33:34.805Z,99536.72
2022-09-01T01:36:01.933Z,99539.69
2022-09-01T01:38:29.103Z,99543.13
2022-09-01T01:40:56.432Z,99535.97
2022-09-01T01:43:23.593Z,99538.56
2022-09-01T01:45:52.272Z,99529.78
2022-09-01T01:48:23.934Z,99530.25
2022-09-01T01:50:51.615Z,99530.25
2022-09-01T01:53:19.284Z,99527.75
2022-09-01T01:55:49.661Z,99525.81
2022-09-01T01:58:19.931Z,99523.09
2022-09-01T02:00:48.075Z,99527.38
2022-09-01T02:03:19.936Z,99529.50
2022-09-01T02:05:47.653Z,99535.81
2022-09-01T02:08:15.690Z,99527.84
2022-09-01T02:10:46.823Z,99530.19
2022-09-01T02:13:17.643Z,99528.75
2022-09-01T02:15:46.152Z,99532.56
2022-09-01T02:18:14.362Z,99518.28
2022-09-01T02:20:42.036Z,99522.06
2022-09-01T02:23:12.386Z,99518.75
2022-09-01T02:25:58.956Z,99519.44
2022-09-01T02:28:31.800Z,99518.81
2022-09-01T02:30:59.866Z,99516.94
2022-09-01T02:33:27.624Z,99514.66
2022-09-01T02:35:56.173Z,99522.22
2022-09-01T02:38:26.150Z,99523.31
2022-09-01T02:40:53.704Z,99524.84
2022-09-01T02:43:21.367Z,99521.47
2022-09-01T02:45:51.793Z,99522.53
2022-09-01T02:48:18.677Z,99519.19
2022-09-01T02:50:45.352Z,99524.03
2022-09-01T02:53:12.127Z,99517.38
2022-09-01T02:55:42.332Z,99515.09
2022-09-01T02:58:11.086Z,99510.69
2022-09-01T03:00:41.124Z,99510.69
2022-09-01T03:03:07.938Z,99504.03
2022-09-01T03:05:36.166Z,99502.34
2022-09-01T03:08:04.366Z,99506.13
2022-09-01T03:10:32.925Z,99499.94
2022-09-01T03:13:00.562Z,99500.38
2022-09-01T03:15:27.561Z,99502.34
2022-09-01T03:17:54.105Z,99499.25
2022-09-01T03:20:21.732Z,99503.84
2022-09-01T03:22:49.202Z,99508.72
2022-09-01T03:25:15.932Z,99507.91
2022-09-01T03:27:42.428Z,99511.47
2022-09-01T03:30:09.204Z,99513.13
2022-09-01T03:32:35.767Z,99506.59
2022-09-01T03:35:02.396Z,99510.41
2022-09-01T03:37:28.884Z,99502.22
2022-09-01T03:39:56.469Z,99504.94
2022-09-01T03:42:29.656Z,99500.06
2022-09-01T03:44:56.884Z,99499.25
2022-09-01T03:47:24.285Z,99497.94
2022-09-01T03:49:51.024Z,99501.75
2022-09-01T03:52:18.117Z,99508.88
2022-09-01T03:54:45.422Z,99510.19
2022-09-01T03:57:13.176Z,99507.69
2022-09-01T03:59:45.247Z,99514.56
2022-09-01T04:02:13.203Z,99507.22
2022-09-01T04:04:39.805Z,99510.56
2022-09-01T04:07:07.167Z,99518.53
2022-09-01T04:09:35.300Z,99511.16
2022-09-01T04:12:03.623Z,99508.41
2022-09-01T04:14:31.122Z,99508.41
2022-09-01T04:17:16.007Z,99497.03
2022-09-01T04:19:43.114Z,99499.16
2022-09-01T04:22:14.491Z,99502.94
2022-09-01T04:24:46.665Z,99500.22
2022-09-01T04:27:14.394Z,99497.94
2022-09-01T04:29:41.850Z,99499.16
2022-09-01T04:32:12.867Z,99503.59
2022-09-01T04:34:40.422Z,99514.50
2022-09-01T04:37:08.167Z,99512.16
2022-09-01T04:39:36.538Z,99512.97
2022-09-01T04:42:06.316Z,99525.59
2022-09-01T04:44:32.843Z,99531.06
2022-09-01T04:46:59.357Z,99532.41
2022-09-01T04:49:27.155Z,99526.81
2022-09-01T04:51:54.420Z,99524.75
2022-09-01T04:54:22.646Z,99524.81
2022-09-01T04:56:50.825Z,99530.72
2022-09-01T04:59:20.432Z,99532.63
2022-09-01T05:01:49.771Z,99536.47
2022-09-01T05:04:18.332Z,99528.72
2022-09-01T05:06:46.834Z,99526.00
2022-09-01T05:09:14.057Z,99524.13
2022-09-01T05:11:45.547Z,99525.09
2022-09-01T05:14:12.808Z,99524.28
2022-09-01T05:16:41.254Z,99512.19
2022-09-01T05:19:14.668Z,99512.19
2022-09-01T05:21:46.133Z,99513.81
2022-09-01T05:24:21.678Z,99502.78
2022-09-01T05:26:48.865Z,99509.50
2022-09-01T05:29:17.502Z,99505.66
2022-09-01T05:31:45.710Z,99509.50
2022-09-01T05:34:14.212Z,99520.09
2022-09-01T05:36:44.505Z,99511.75
2022-09-01T05:39:12.347Z,99513.47
2022-09-01T05:41:42.388Z,99521.63
2022-09-01T05:44:09.713Z,99529.38
2022-09-01T05:46:37.770Z,99532.25
2022-09-01T05:49:08.192Z,99531.66
2022-09-01T05:51:46.089Z,99532.69
2022-09-01T05:54:18.672Z,99538.59
2022-09-01T05:56:46.110Z,99535.72
2022-09-01T05:59:29.001Z,99545.78
2022-09-01T06:01:56.030Z,99554.66
2022-09-01T06:04:23.325Z,99551.16
2022-09-01T06:07:07.935Z,99560.41
2022-09-01T06:09:39.309Z,99559.81
2022-09-01T06:12:06.747Z,99566.22
2022-09-01T06:14:33.831Z,99566.66
2022-09-01T06:17:01.055Z,99569.97
2022-09-01T06:19:28.774Z,99575.44
2022-09-01T06:21:56.951Z,99571.28
2022-09-01T06:24:23.651Z,99573.16
2022-09-01T06:26:50.175Z,99583.03
2022-09-01T06:29:16.671Z,99586.38
2022-09-01T06:31:51.863Z,99586.78
2022-09-01T06:34:19.679Z,99597.28
2022-09-01T06:36:47.896Z,99596.06
2022-09-01T06:39:20.010Z,99596.97
2022-09-01T06:41:53.263Z,99610.00
2022-09-01T06:44:22.653Z,99604.13
2022-09-01T06:46:50.294Z,99605.41
2022-09-01T06:49:16.885Z,99622.03
2022-09-01T06:51:43.620Z,99621.03
2022-09-01T06:54:14.796Z,99612.75
2022-09-01T06:56:44.714Z,99620.97
2022-09-01T06:59:17.965Z,99614.91
2022-09-01T07:01:45.129Z,99604.03
2022-09-01T07:04:13.224Z,99604.91
2022-09-01T07:09:38.655Z,99601.97
2022-09-01T07:12:29.934Z,99604.03
2022-09-01T07:17:49.180Z,99610.78
2022-09-01T07:20:23.606Z,99622.50
2022-09-01T07:23:07.210Z,99614.13
2022-09-01T07:28:37.658Z,99617.47
2022-09-01T07:33:55.720Z,99620.88
2022-09-01T07:47:56.050Z,99631.75
2022-09-01T07:50:38.612Z,99640.13
2022-09-01T07:53:09.359Z,99658.88
2022-09-01T07:55:36.363Z,99673.28
2022-09-01T07:58:02.854Z,99676.00
2022-09-01T08:00:31.982Z,99679.25
2022-09-01T08:02:58.692Z,99657.03
2022-09-01T08:05:27.112Z,99656.63
2022-09-01T08:07:54.592Z,99661.66
2022-09-01T08:10:21.161Z,99666.31
2022-09-01T08:12:56.232Z,99659.97
2022-09-01T08:15:41.170Z,99666.91
2022-09-01T08:18:09.976Z,99665.25
2022-09-01T08:20:39.877Z,99659.66
2022-09-01T08:23:06.876Z,99645.81
2022-09-01T08:25:34.300Z,99656.28
2022-09-01T08:28:01.572Z,99674.59
2022-09-01T08:30:28.516Z,99690.06
2022-09-01T08:32:55.089Z,99710.88
2022-09-01T08:35:21.686Z,99715.47
2022-09-01T08:37:48.223Z,99710.72
2022-09-01T08:40:17.958Z,99713.44
2022-09-01T08:42:44.843Z,99717.56
2022-09-01T08:45:20.181Z,99698.88
2022-09-01T08:48:15.202Z,99705.31
2022-09-01T08:50:35.251Z,99708.66
2022-09-01T08:53:10.517Z,99694.56
2022-09-01T08:55:42.007Z,99697.75
2022-09-01T08:58:09.795Z,99706.69
2022-09-01T09:00:42.526Z,99704.00
2022-09-01T09:03:12.238Z,99708.16
2022-09-01T09:05:41.697Z,99701.66
2022-09-01T09:08:29.626Z,99698.88
2022-09-01T09:11:01.917Z,99697.22
2022-09-01T09:13:46.960Z,99699.34
2022-09-01T09:16:17.588Z,99710.34
2022-09-01T09:18:55.653Z,99708.00
2022-09-01T09:21:29.962Z,99705.72
2022-09-01T09:24:22.578Z,99711.28
2022-09-01T09:26:53.707Z,99718.41
2022-09-01T09:29:22.040Z,99716.56
2022-09-01T09:32:01.288Z,99723.47
2022-09-01T09:34:32.742Z,99715.56
2022-09-01T09:37:17.488Z,99713.38
2022-09-01T09:39:44.197Z,99712.00
2022-09-01T09:42:13.509Z,99708.72
2022-09-01T09:44:48.996Z,99713.78
2022-09-01T09:47:46.087Z,99718.31
2022-09-01T09:50:22.536Z,99718.22
2022-09-01T09:52:49.755Z,99715.34
2022-09-01T09:55:22.250Z,99715.38
2022-09-01T09:57:49.863Z,99722.47
2022-09-01T10:00:30.287Z,99728.00
2022-09-01T10:02:58.736Z,99733.78
2022-09-01T10:05:34.110Z,99744.22
2022-09-01T10:08:01.429Z,99734.63
2022-09-01T10:10:31.495Z,99745.19
2022-09-01T10:12:59.009Z,99748.50
2022-09-01T10:15:26.987Z,99748.59
2022-09-01T10:18:19.549Z,99737.25
2022-09-01T10:20:45.979Z,99736.75
2022-09-01T10:23:15.099Z,99738.09
2022-09-01T10:25:43.237Z,99732.25
2022-09-01T10:28:22.085Z,99737.28
2022-09-01T10:30:48.981Z,99734.41
2022-09-01T10:33:21.016Z,99733.06
2022-09-01T10:35:50.990Z,99726.84
2022-09-01T10:38:20.492Z,99731.03
2022-09-01T10:40:49.843Z,99731.47
2022-09-01T10:43:38.037Z,99725.47
2022-09-01T10:46:24.803Z,99727.81
2022-09-01T10:48:55.638Z,99718.91
2022-09-01T10:51:28.923Z,99720.59
2022-09-01T10:54:04.039Z,99712.41
2022-09-01T10:57:03.866Z,99718.00
2022-09-01T10:59:43.307Z,99706.03
2022-09-01T11:02:34.657Z,99710.31
2022-09-01T11:04:59.455Z,99700.88
2022-09-01T11:07:58.305Z,99710.72
2022-09-01T11:10:36.394Z,99708.72
2022-09-01T11:13:23.529Z,99712.59
2022-09-01T11:15:50.151Z,99706.69
2022-09-01T11:18:23.618Z,99707.53
2022-09-01T11:20:50.969Z,99712.00
2022-09-01T11:23:23.056Z,99716.88
2022-09-01T11:28:47.030Z,99716.41
2022-09-01T11:31:16.138Z,99707.47
2022-09-01T11:33:43.183Z,99711.72
2022-09-01T11:36:15.998Z,99715.28
2022-09-01T11:38:45.949Z,99708.72
2022-09-01T11:41:26.919Z,99710.78
2022-09-01T11:43:56.500Z,99717.22
2022-09-01T11:46:26.193Z,99713.28
2022-09-01T11:48:53.164Z,99716.66
2022-09-01T11:51:21.509Z,99718.28
2022-09-01T11:53:48.207Z,99717.66
2022-09-01T11:56:25.679Z,99709.06
2022-09-01T11:58:52.216Z,99710.94
2022-09-01T12:01:20.505Z,99709.25
2022-09-01T12:04:05.426Z,99700.44
2022-09-01T12:06:31.976Z,99704.03
2022-09-01T12:09:04.067Z,99700.88
2022-09-01T12:11:32.047Z,99705.91
2022-09-01T12:14:01.315Z,99703.41
2022-09-01T12:16:28.878Z,99714.75
2022-09-01T12:18:56.785Z,99715.59
2022-09-01T12:21:25.922Z,99725.22
2022-09-01T12:23:52.728Z,99730.28
2022-09-01T12:26:22.332Z,99740.31
2022-09-01T12:28:49.895Z,99735.31
2022-09-01T12:31:21.826Z,99739.06
2022-09-01T12:33:48.588Z,99742.63
2022-09-01T12:36:15.175Z,99736.13
2022-09-01T12:38:41.701Z,99734.47
2022-09-01T12:41:40.690Z,99737.81
2022-09-01T12:44:25.378Z,99735.72
2022-09-01T12:46:51.895Z,99747.44
2022-09-01T12:49:28.737Z,99748.28
2022-09-01T12:52:10.820Z,99741.56
2022-09-01T12:54:37.565Z,99745.31
2022-09-01T12:57:04.554Z,99744.09
2022-09-01T12:59:36.307Z,99729.00
2022-09-01T13:02:22.755Z,99731.91
2022-09-01T13:04:49.735Z,99721.03
2022-09-01T13:07:16.231Z,99721.47
2022-09-01T13:09:42.745Z,99710.59
2022-09-01T13:12:16.178Z,99722.28
2022-09-01T13:14:42.719Z,99728.59
2022-09-01T13:17:14.091Z,99730.28
2022-09-01T13:19:41.231Z,99728.16
2022-09-01T13:22:07.901Z,99716.00
2022-09-01T13:24:34.464Z,99719.34
2022-09-01T13:29:48.933Z,99719.34
2022-09-01T13:32:18.713Z,99721.81
2022-09-01T13:34:46.983Z,99715.94
2022-09-01T13:37:13.593Z,99721.00
2022-09-01T13:39:40.280Z,99722.03
2022-09-01T13:42:06.946Z,99719.34
2022-09-01T13:44:34.060Z,99722.28
2022-09-01T13:47:27.880Z,99725.22
2022-09-01T13:52:34.149Z,99726.91
2022-09-01T13:55:01.700Z,99729.00
2022-09-01T13:57:28.336Z,99732.31
2022-09-01T14:00:02.461Z,99734.00
2022-09-01T14:02:28.996Z,99731.53
2022-09-01T14:04:55.628Z,99736.13
2022-09-01T14:07:22.285Z,99745.75
2022-09-01T14:09:48.727Z,99736.56
2022-09-01T14:12:15.235Z,99748.28
2022-09-01T14:17:28.297Z,99739.91
2022-09-01T14:19:55.445Z,99742.22
2022-09-01T14:22:22.002Z,99744.50
2022-09-01T14:24:48.978Z,99747.88
2022-09-01T14:27:15.572Z,99745.78
2022-09-01T14:32:08.092Z,99745.16
2022-09-01T14:34:35.241Z,99742.84
2022-09-01T14:37:01.925Z,99745.38
2022-09-01T14:39:28.696Z,99746.19
2022-09-01T14:41:55.170Z,99741.59
2022-09-01T14:44:21.796Z,99753.53
2022-09-01T14:46:49.215Z,99749.97
2022-09-01T14:49:21.632Z,99749.97
2022-09-01T14:54:36.203Z,99748.09
2022-09-01T14:59:49.851Z,99748.69
2022-09-01T15:02:16.386Z,99745.56
2022-09-01T15:04:42.912Z,99738.22
2022-09-01T15:07:09.551Z,99736.13
2022-09-01T15:09:36.044Z,99734.88
2022-09-01T15:12:02.717Z,99741.16
2022-09-01T15:14:29.383Z,99747.03
2022-09-01T15:16:55.841Z,99747.25
2022-09-01T15:19:22.377Z,99755.84
2022-09-01T15:21:48.940Z,99749.56
2022-09-01T15:24:15.835Z,99757.09
2022-09-01T15:26:44.370Z,99750.59
2022-09-01T15:29:15.143Z,99748.28
2022-09-01T15:31:42.649Z,99751.63
2022-09-01T15:34:09.733Z,99762.97
2022-09-01T15:36:39.918Z,99762.94
2022-09-01T15:39:08.094Z,99761.69
2022-09-01T15:41:35.442Z,99764.19
2022-09-01T15:44:03.900Z,99760.84
2022-09-01T15:46:33.776Z,99760.84
2022-09-01T15:49:01.490Z,99762.09
2022-09-01T15:51:33.011Z,99764.59
2022-09-01T15:54:19.868Z,99761.47
2022-09-01T15:56:47.235Z,99766.69
2022-09-01T15:59:14.171Z,99763.94
2022-09-01T16:01:43.298Z,99776.31
2022-09-01T16:04:15.804Z,99768.75
2022-09-01T16:06:44.324Z,99771.25
2022-09-01T16:09:10.892Z,99763.06
2022-09-01T16:11:38.939Z,99771.03
2022-09-01T16:14:05.612Z,99772.47
2022-09-01T16:16:51.971Z,99770.78
2022-09-01T16:19:30.824Z,99778.72
2022-09-01T16:22:16.098Z,99770.75
2022-09-01T16:24:44.719Z,99767.38
2022-09-01T16:27:13.230Z,99769.06
2022-09-01T16:29:43.273Z,99764.44
2022-09-01T16:32:11.608Z,99759.19
2022-09-01T16:34:42.519Z,99773.19
2022-09-01T16:37:13.501Z,99771.91
2022-09-01T16:39:47.166Z,99778.38
2022-09-01T16:42:22.838Z,99779.47
2022-09-01T16:45:01.497Z,99772.78
2022-09-01T16:47:43.333Z,99777.34
2022-09-01T16:50:12.731Z,99779.44
2022-09-01T16:52:58.049Z,99770.22
2022-09-01T16:55:53.628Z,99773.59
2022-09-01T16:58:35.003Z,99776.72
2022-09-01T17:01:02.193Z,99776.50
2022-09-01T17:03:48.991Z,99788.84
2022-09-01T17:06:18.479Z,99778.16
2022-09-01T17:08:52.644Z,99787.38
2022-09-01T17:11:27.003Z,99776.91
2022-09-01T17:13:54.982Z,99778.75
2022-09-01T17:16:38.699Z,99784.00
2022-09-01T17:19:10.515Z,99784.78
2022-09-01T17:21:37.170Z,99778.09
2022-09-01T17:24:12.374Z,99781.22
2022-09-01T17:26:40.303Z,99776.81
2022-09-01T17:29:23.209Z,99778.03
2022-09-01T17:32:08.360Z,99776.38
2022-09-01T17:34:51.678Z,99783.06
2022-09-01T17:37:32.752Z,99791.22
2022-09-01T17:40:02.214Z,99786.78
2022-09-01T17:42:34.526Z,99795.63
2022-09-01T17:45:04.187Z,99791.84
2022-09-01T17:47:47.617Z,99794.31
2022-09-01T17:50:23.283Z,99803.28
2022-09-01T17:52:56.454Z,99794.88
2022-09-01T17:55:26.213Z,99805.09
2022-09-01T17:58:04.805Z,99807.63
2022-09-01T18:00:38.500Z,99801.34
2022-09-01T18:03:19.047Z,99812.22
2022-09-01T18:05:48.584Z,99811.19
2022-09-01T18:08:17.855Z,99808.91
2022-09-01T18:11:08.401Z,99811.44
2022-09-01T18:13:54.065Z,99816.88
2022-09-01T18:16:23.410Z,99813.13
2022-09-01T18:18:51.083Z,99818.97
2022-09-01T18:21:29.456Z,99817.28
2022-09-01T18:24:01.639Z,99824.41
2022-09-01T18:26:35.329Z,99830.50
2022-09-01T18:29:02.917Z,99826.75
2022-09-01T18:31:29.411Z,99827.78
2022-09-01T18:34:14.931Z,99823.22
2022-09-01T18:37:07.337Z,99824.47
2022-09-01T18:39:42.990Z,99827.84
2022-09-01T18:42:23.438Z,99829.91
2022-09-01T18:44:52.790Z,99829.28
2022-09-01T18:47:49.167Z,99828.25
2022-09-01T18:50:18.768Z,99834.72
2022-09-01T18:53:01.538Z,99827.59
2022-09-01T18:55:31.244Z,99830.78
2022-09-01T18:58:04.106Z,99834.53
2022-09-01T19:00:38.257Z,99834.53
2022-09-01T19:03:34.083Z,99835.34
2022-09-01T19:06:09.744Z,99832.03
2022-09-01T19:08:45.952Z,99833.31
2022-09-01T19:11:21.178Z,99830.41
2022-09-01T19:13:50.545Z,99832.09
2022-09-01T19:16:36.098Z,99841.72
2022-09-01T19:19:05.578Z,99838.16
2022-09-01T19:21:32.642Z,99835.44
2022-09-01T19:24:13.632Z,99835.84
2022-09-01T19:26:46.603Z,99838.34
2022-09-01T19:29:18.317Z,99850.03
2022-09-01T19:31:47.405Z,99834.75
2022-09-01T19:34:18.782Z,99838.72
2022-09-01T19:36:45.606Z,99833.28
2022-09-01T19:39:14.535Z,99826.59
2022-09-01T19:41:58.058Z,99831.41
2022-09-01T19:44:34.040Z,99836.34
2022-09-01T19:47:03.029Z,99835.00
2022-09-01T19:49:32.302Z,99830.63
2022-09-01T19:51:59.008Z,99839.56
2022-09-01T19:54:34.393Z,99843.88
2022-09-01T19:57:19.357Z,99838.38
2022-09-01T19:59:55.699Z,99835.66
2022-09-01T20:02:26.651Z,99832.31
2022-09-01T20:05:00.341Z,99854.06
2022-09-01T20:07:26.809Z,99846.69
2022-09-01T20:10:08.284Z,99851.47
2022-09-01T20:12:41.040Z,99845.38
2022-09-01T20:15:07.711Z,99855.03
2022-09-01T20:17:43.014Z,99845.78
2022-09-01T20:20:09.898Z,99840.72
2022-09-01T20:22:36.522Z,99839.03
2022-09-01T20:25:10.682Z,99838.59
2022-09-01T20:27:43.760Z,99842.28
2022-09-01T20:30:12.993Z,99834.78
2022-09-01T20:32:58.991Z,99840.22
2022-09-01T20:35:42.720Z,99840.59
2022-09-01T20:38:36.684Z,99842.69
2022-09-01T20:41:12.757Z,99846.03
2022-09-01T20:43:42.628Z,99841.91
2022-09-01T20:46:09.162Z,99840.88
2022-09-01T20:48:38.180Z,99843.59
2022-09-01T20:51:07.904Z,99842.53
2022-09-01T20:53:53.123Z,99842.28
2022-09-01T20:56:34.854Z,99845.00
2022-09-01T20:59:19.397Z,99839.13
2022-09-01T21:01:55.099Z,99846.41
2022-09-01T21:04:31.346Z,99854.69
2022-09-01T21:06:57.850Z,99841.75
2022-09-01T21:09:33.217Z,99839.84
2022-09-01T21:12:07.951Z,99849.66
2022-09-01T21:14:40.918Z,99838.78
2022-09-01T21:17:26.827Z,99849.03
2022-09-01T21:19:53.278Z,99851.34
2022-09-01T21:22:22.083Z,99844.66
2022-09-01T21:24:49.308Z,99847.19
2022-09-01T21:27:17.948Z,99852.13
2022-09-01T21:29:44.454Z,99849.78
2022-09-01T21:32:13.862Z,99846.16
2022-09-01T21:34:40.354Z,99847.44
2022-09-01T21:37:06.813Z,99848.28
2022-09-01T21:39:33.345Z,99843.72
2022-09-01T21:42:00.398Z,99844.09
2022-09-01T21:44:26.907Z,99847.84
2022-09-01T21:46:53.514Z,99846.06
2022-09-01T21:49:20.176Z,99839.81
2022-09-01T21:51:46.744Z,99841.47
2022-09-01T21:54:13.264Z,99841.22
2022-09-01T21:56:39.767Z,99845.63
2022-09-01T21:59:06.308Z,99843.00
2022-09-01T22:01:35.227Z,99847.16
2022-09-01T22:04:04.350Z,99843.00
2022-09-01T22:06:31.888Z,99836.69
2022-09-01T22:09:00.260Z,99834.22
2022-09-01T22:11:26.830Z,99830.88
2022-09-01T22:13:53.334Z,99832.91
2022-09-01T22:16:20.585Z,99831.63
2022-09-01T22:18:47.313Z,99826.66
2022-09-01T22:21:14.374Z,99820.56
2022-09-01T22:23:41.433Z,99823.84
2022-09-01T22:26:11.396Z,99817.22
2022-09-01T22:28:40.188Z,99813.47
2022-09-01T22:31:07.267Z,99824.72
2022-09-01T22:33:34.042Z,99821.31
2022-09-01T22:36:00.535Z,99810.84
2022-09-01T22:38:27.368Z,99810.84
2022-09-01T22:40:55.388Z,99806.28
2022-09-01T22:43:23.076Z,99811.22
2022-09-01T22:45:50.706Z,99813.31
2022-09-01T22:48:18.218Z,99812.38
2022-09-01T22:50:45.436Z,99812.38
2022-09-01T22:53:12.424Z,99810.72
2022-09-01T22:55:40.005Z,99806.03
2022-09-01T22:58:09.832Z,99811.09
2022-09-01T23:00:37.050Z,99803.97
2022-09-01T23:03:04.481Z,99811.84
2022-09-01T23:05:31.038Z,99799.75
2022-09-01T23:07:58.904Z,99801.44
2022-09-01T23:10:26.167Z,99806.78
2022-09-01T23:12:52.695Z,99799.28
2022-09-01T23:15:19.277Z,99792.84
2022-09-01T23:17:45.808Z,99792.16
2022-09-01T23:20:13.487Z,99810.13
2022-09-01T23:22:41.048Z,99792.94
2022-09-01T23:25:07.976Z,99791.25
2022-09-01T23:27:34.884Z,99800.53
2022-09-01T23:30:01.418Z,99796.13
2022-09-01T23:32:27.993Z,99792.00
2022-09-01T23:34:55.288Z,99797.16
2022-09-01T23:37:21.781Z,99786.97
2022-09-01T23:39:48.279Z,99790.69
2022-09-01T23:42:16.169Z,99794.81
2022-09-01T23:44:42.729Z,99792.69
2022-09-01T23:47:09.220Z,99785.09
2022-09-01T23:49:35.716Z,99779.56
2022-09-01T23:52:02.277Z,99771.25
2022-09-01T23:54:28.803Z,99779.47
2022-09-01T23:56:55.317Z,99773.22
2022-09-01T23:59:27.280Z,99778.66
